sensor_id;sensor_type;location;lat;lon;timestamp;P1;durP1;ratioP1;P2;durP2;ratioP2
19187;SDS011;9726;52.198;8.792;2024-03-29T00:02:06;3.77;;;1.20;;
19187;SDS011;9726;52.198;8.792;2024-03-29T00:04:32;4.65;;;1.48;;
19187;SDS011;9726;52.198;8.792;2024-03-29T00:06:59;6.87;;;1.20;;
19187;SDS011;9726;52.198;8.792;2024-03-29T00:09:25;5.23;;;1.17;;
19187;SDS011;9726;52.198;8.792;2024-03-29T00:11:51;8.57;;;1.10;;
19187;SDS011;9726;52.198;8.792;2024-03-29T00:14:20;5.73;;;1.50;;
19187;SDS011;9726;52.198;8.792;2024-03-29T00:16:46;2.67;;;1.30;;
19187;SDS011;9726;52.198;8.792;2024-03-29T00:19:12;3.53;;;1.20;;
19187;SDS011;9726;52.198;8.792;2024-03-29T00:21:39;5.13;;;1.27;;
19187;SDS011;9726;52.198;8.792;2024-03-29T00:24:05;8.73;;;1.93;;
19187;SDS011;9726;52.198;8.792;2024-03-29T00:26:31;7.10;;;1.17;;
19187;SDS011;9726;52.198;8.792;2024-03-29T00:28:57;5.37;;;1.03;;
19187;SDS011;9726;52.198;8.792;2024-03-29T00:31:23;3.33;;;1.00;;
19187;SDS011;9726;52.198;8.792;2024-03-29T00:33:49;7.20;;;1.53;;
19187;SDS011;9726;52.198;8.792;2024-03-29T00:36:15;7.27;;;1.27;;
19187;SDS011;9726;52.198;8.792;2024-03-29T00:38:41;3.03;;;1.13;;
19187;SDS011;9726;52.198;8.792;2024-03-29T00:41:07;2.77;;;1.00;;
19187;SDS011;9726;52.198;8.792;2024-03-29T00:43:34;11.30;;;1.60;;
19187;SDS011;9726;52.198;8.792;2024-03-29T00:46:00;6.27;;;1.40;;
19187;SDS011;9726;52.198;8.792;2024-03-29T00:48:26;5.53;;;1.13;;
19187;SDS011;9726;52.198;8.792;2024-03-29T00:50:52;7.40;;;1.10;;
19187;SDS011;9726;52.198;8.792;2024-03-29T00:53:18;6.83;;;1.40;;
19187;SDS011;9726;52.198;8.792;2024-03-29T00:55:44;2.97;;;1.10;;
19187;SDS011;9726;52.198;8.792;2024-03-29T00:58:11;5.23;;;1.30;;
19187;SDS011;9726;52.198;8.792;2024-03-29T01:00:37;6.20;;;1.13;;
19187;SDS011;9726;52.198;8.792;2024-03-29T01:03:03;6.63;;;1.50;;
19187;SDS011;9726;52.198;8.792;2024-03-29T01:05:29;12.27;;;1.50;;
19187;SDS011;9726;52.198;8.792;2024-03-29T01:07:55;1.37;;;1.00;;
19187;SDS011;9726;52.198;8.792;2024-03-29T01:10:21;5.83;;;0.97;;
19187;SDS011;9726;52.198;8.792;2024-03-29T01:12:48;5.53;;;1.03;;
19187;SDS011;9726;52.198;8.792;2024-03-29T01:15:14;4.13;;;0.77;;
19187;SDS011;9726;52.198;8.792;2024-03-29T01:17:40;3.17;;;1.20;;
19187;SDS011;9726;52.198;8.792;2024-03-29T01:20:06;5.43;;;0.93;;
19187;SDS011;9726;52.198;8.792;2024-03-29T01:22:34;11.70;;;1.23;;
19187;SDS011;9726;52.198;8.792;2024-03-29T01:25:00;4.67;;;1.03;;
19187;SDS011;9726;52.198;8.792;2024-03-29T01:27:28;4.17;;;1.23;;
19187;SDS011;9726;52.198;8.792;2024-03-29T01:29:54;5.90;;;1.30;;
19187;SDS011;9726;52.198;8.792;2024-03-29T01:32:20;3.90;;;1.50;;
19187;SDS011;9726;52.198;8.792;2024-03-29T01:34:47;3.00;;;0.80;;
19187;SDS011;9726;52.198;8.792;2024-03-29T01:37:13;5.53;;;1.43;;
19187;SDS011;9726;52.198;8.792;2024-03-29T01:39:39;4.27;;;1.13;;
19187;SDS011;9726;52.198;8.792;2024-03-29T01:42:05;8.13;;;1.27;;
19187;SDS011;9726;52.198;8.792;2024-03-29T01:44:31;5.70;;;1.20;;
19187;SDS011;9726;52.198;8.792;2024-03-29T01:46:57;5.30;;;1.00;;
19187;SDS011;9726;52.198;8.792;2024-03-29T01:49:24;7.73;;;1.30;;
19187;SDS011;9726;52.198;8.792;2024-03-29T01:51:50;2.20;;;0.90;;
19187;SDS011;9726;52.198;8.792;2024-03-29T01:54:17;7.40;;;1.23;;
19187;SDS011;9726;52.198;8.792;2024-03-29T01:56:43;5.60;;;1.57;;
19187;SDS011;9726;52.198;8.792;2024-03-29T01:59:12;7.10;;;1.17;;
19187;SDS011;9726;52.198;8.792;2024-03-29T02:01:43;7.57;;;1.20;;
19187;SDS011;9726;52.198;8.792;2024-03-29T02:04:11;9.80;;;1.20;;
19187;SDS011;9726;52.198;8.792;2024-03-29T02:06:37;1.80;;;1.00;;
19187;SDS011;9726;52.198;8.792;2024-03-29T02:09:04;2.50;;;1.47;;
19187;SDS011;9726;52.198;8.792;2024-03-29T02:11:31;10.87;;;1.10;;
19187;SDS011;9726;52.198;8.792;2024-03-29T02:13:57;7.93;;;1.43;;
19187;SDS011;9726;52.198;8.792;2024-03-29T02:16:23;6.00;;;1.30;;
19187;SDS011;9726;52.198;8.792;2024-03-29T02:18:50;6.57;;;1.13;;
19187;SDS011;9726;52.198;8.792;2024-03-29T02:21:16;6.00;;;0.70;;
19187;SDS011;9726;52.198;8.792;2024-03-29T02:23:46;3.70;;;1.43;;
19187;SDS011;9726;52.198;8.792;2024-03-29T02:26:13;3.93;;;1.30;;
19187;SDS011;9726;52.198;8.792;2024-03-29T02:28:39;9.23;;;1.47;;
19187;SDS011;9726;52.198;8.792;2024-03-29T02:31:05;8.43;;;0.97;;
19187;SDS011;9726;52.198;8.792;2024-03-29T02:33:31;8.13;;;1.70;;
19187;SDS011;9726;52.198;8.792;2024-03-29T02:35:57;3.37;;;1.07;;
19187;SDS011;9726;52.198;8.792;2024-03-29T02:38:24;1.13;;;0.77;;
19187;SDS011;9726;52.198;8.792;2024-03-29T02:40:50;4.33;;;1.00;;
19187;SDS011;9726;52.198;8.792;2024-03-29T02:43:16;4.83;;;1.37;;
19187;SDS011;9726;52.198;8.792;2024-03-29T02:45:42;7.97;;;1.10;;
19187;SDS011;9726;52.198;8.792;2024-03-29T02:48:09;2.90;;;0.93;;
19187;SDS011;9726;52.198;8.792;2024-03-29T02:50:35;9.03;;;1.50;;
19187;SDS011;9726;52.198;8.792;2024-03-29T02:53:01;8.37;;;1.40;;
19187;SDS011;9726;52.198;8.792;2024-03-29T02:55:27;5.30;;;1.03;;
19187;SDS011;9726;52.198;8.792;2024-03-29T02:57:53;4.80;;;0.93;;
19187;SDS011;9726;52.198;8.792;2024-03-29T03:00:19;5.67;;;1.23;;
19187;SDS011;9726;52.198;8.792;2024-03-29T03:02:45;4.83;;;1.17;;
19187;SDS011;9726;52.198;8.792;2024-03-29T03:05:11;7.07;;;1.37;;
19187;SDS011;9726;52.198;8.792;2024-03-29T03:07:37;8.43;;;1.40;;
19187;SDS011;9726;52.198;8.792;2024-03-29T03:10:22;4.13;;;1.07;;
19187;SDS011;9726;52.198;8.792;2024-03-29T03:13:06;2.60;;;0.93;;
19187;SDS011;9726;52.198;8.792;2024-03-29T03:15:33;8.73;;;1.63;;
19187;SDS011;9726;52.198;8.792;2024-03-29T03:17:59;6.90;;;1.10;;
19187;SDS011;9726;52.198;8.792;2024-03-29T03:20:25;6.90;;;1.03;;
19187;SDS011;9726;52.198;8.792;2024-03-29T03:22:56;6.47;;;1.40;;
19187;SDS011;9726;52.198;8.792;2024-03-29T03:25:24;5.90;;;1.23;;
19187;SDS011;9726;52.198;8.792;2024-03-29T03:27:51;6.50;;;1.13;;
19187;SDS011;9726;52.198;8.792;2024-03-29T03:30:17;9.67;;;1.77;;
19187;SDS011;9726;52.198;8.792;2024-03-29T03:32:43;12.90;;;1.40;;
19187;SDS011;9726;52.198;8.792;2024-03-29T03:35:09;4.83;;;1.60;;
19187;SDS011;9726;52.198;8.792;2024-03-29T03:37:36;4.57;;;1.07;;
19187;SDS011;9726;52.198;8.792;2024-03-29T03:40:02;2.93;;;1.10;;
19187;SDS011;9726;52.198;8.792;2024-03-29T03:42:29;6.93;;;1.27;;
19187;SDS011;9726;52.198;8.792;2024-03-29T03:44:56;5.57;;;1.20;;
19187;SDS011;9726;52.198;8.792;2024-03-29T03:47:22;10.77;;;1.30;;
19187;SDS011;9726;52.198;8.792;2024-03-29T03:49:48;7.33;;;1.43;;
19187;SDS011;9726;52.198;8.792;2024-03-29T03:52:14;9.50;;;1.50;;
19187;SDS011;9726;52.198;8.792;2024-03-29T03:54:40;5.47;;;1.70;;
19187;SDS011;9726;52.198;8.792;2024-03-29T03:57:06;5.30;;;1.40;;
19187;SDS011;9726;52.198;8.792;2024-03-29T03:59:32;2.83;;;1.33;;
19187;SDS011;9726;52.198;8.792;2024-03-29T04:01:58;3.03;;;1.40;;
19187;SDS011;9726;52.198;8.792;2024-03-29T04:04:25;3.40;;;1.53;;
19187;SDS011;9726;52.198;8.792;2024-03-29T04:06:51;3.50;;;1.00;;
19187;SDS011;9726;52.198;8.792;2024-03-29T04:09:17;3.03;;;1.60;;
19187;SDS011;9726;52.198;8.792;2024-03-29T04:11:43;6.53;;;2.03;;
19187;SDS011;9726;52.198;8.792;2024-03-29T04:14:09;3.23;;;1.30;;
19187;SDS011;9726;52.198;8.792;2024-03-29T04:16:35;8.23;;;1.50;;
19187;SDS011;9726;52.198;8.792;2024-03-29T04:19:02;5.30;;;1.00;;
19187;SDS011;9726;52.198;8.792;2024-03-29T04:21:28;4.40;;;1.20;;
19187;SDS011;9726;52.198;8.792;2024-03-29T04:23:54;5.80;;;2.07;;
19187;SDS011;9726;52.198;8.792;2024-03-29T04:26:20;8.80;;;1.53;;
19187;SDS011;9726;52.198;8.792;2024-03-29T04:28:46;6.03;;;1.33;;
19187;SDS011;9726;52.198;8.792;2024-03-29T04:31:12;6.03;;;1.40;;
19187;SDS011;9726;52.198;8.792;2024-03-29T04:33:38;6.03;;;1.27;;
19187;SDS011;9726;52.198;8.792;2024-03-29T04:36:04;4.63;;;1.20;;
19187;SDS011;9726;52.198;8.792;2024-03-29T04:38:32;6.33;;;1.10;;
19187;SDS011;9726;52.198;8.792;2024-03-29T04:40:58;3.33;;;1.20;;
19187;SDS011;9726;52.198;8.792;2024-03-29T04:43:25;3.80;;;0.87;;
19187;SDS011;9726;52.198;8.792;2024-03-29T04:46:12;5.10;;;0.87;;
19187;SDS011;9726;52.198;8.792;2024-03-29T04:48:39;4.30;;;1.10;;
19187;SDS011;9726;52.198;8.792;2024-03-29T04:51:07;3.50;;;1.00;;
19187;SDS011;9726;52.198;8.792;2024-03-29T04:53:37;2.93;;;0.97;;
19187;SDS011;9726;52.198;8.792;2024-03-29T04:56:04;4.83;;;1.30;;
19187;SDS011;9726;52.198;8.792;2024-03-29T04:58:31;2.47;;;1.20;;
19187;SDS011;9726;52.198;8.792;2024-03-29T05:00:57;6.40;;;1.07;;
19187;SDS011;9726;52.198;8.792;2024-03-29T05:03:24;3.93;;;1.30;;
19187;SDS011;9726;52.198;8.792;2024-03-29T05:05:50;10.17;;;1.40;;
19187;SDS011;9726;52.198;8.792;2024-03-29T05:08:17;1.77;;;0.90;;
19187;SDS011;9726;52.198;8.792;2024-03-29T05:10:45;5.73;;;1.77;;
19187;SDS011;9726;52.198;8.792;2024-03-29T05:13:12;3.33;;;0.93;;
19187;SDS011;9726;52.198;8.792;2024-03-29T05:15:38;4.77;;;1.03;;
19187;SDS011;9726;52.198;8.792;2024-03-29T05:18:04;4.80;;;1.13;;
19187;SDS011;9726;52.198;8.792;2024-03-29T05:20:31;8.30;;;1.00;;
19187;SDS011;9726;52.198;8.792;2024-03-29T05:23:00;7.37;;;1.00;;
19187;SDS011;9726;52.198;8.792;2024-03-29T05:25:26;3.20;;;0.87;;
19187;SDS011;9726;52.198;8.792;2024-03-29T05:27:53;2.47;;;1.10;;
19187;SDS011;9726;52.198;8.792;2024-03-29T05:30:19;1.67;;;0.70;;
19187;SDS011;9726;52.198;8.792;2024-03-29T05:32:45;4.10;;;1.03;;
19187;SDS011;9726;52.198;8.792;2024-03-29T05:35:11;6.40;;;1.10;;
19187;SDS011;9726;52.198;8.792;2024-03-29T05:37:39;1.70;;;1.07;;
19187;SDS011;9726;52.198;8.792;2024-03-29T05:40:14;4.33;;;1.23;;
19187;SDS011;9726;52.198;8.792;2024-03-29T05:42:41;4.50;;;1.10;;
19187;SDS011;9726;52.198;8.792;2024-03-29T05:45:20;2.23;;;1.20;;
19187;SDS011;9726;52.198;8.792;2024-03-29T05:47:49;2.40;;;0.90;;
19187;SDS011;9726;52.198;8.792;2024-03-29T05:50:15;3.67;;;0.90;;
19187;SDS011;9726;52.198;8.792;2024-03-29T05:52:42;7.17;;;1.00;;
19187;SDS011;9726;52.198;8.792;2024-03-29T05:55:11;9.70;;;1.67;;
19187;SDS011;9726;52.198;8.792;2024-03-29T05:57:37;4.43;;;1.20;;
19187;SDS011;9726;52.198;8.792;2024-03-29T06:00:06;4.60;;;1.10;;
19187;SDS011;9726;52.198;8.792;2024-03-29T06:02:36;2.57;;;0.93;;
19187;SDS011;9726;52.198;8.792;2024-03-29T06:05:03;2.77;;;1.10;;
19187;SDS011;9726;52.198;8.792;2024-03-29T06:07:30;6.20;;;1.00;;
19187;SDS011;9726;52.198;8.792;2024-03-29T06:10:01;7.60;;;1.30;;
19187;SDS011;9726;52.198;8.792;2024-03-29T06:12:31;10.43;;;1.53;;
19187;SDS011;9726;52.198;8.792;2024-03-29T06:15:01;9.23;;;1.40;;
19187;SDS011;9726;52.198;8.792;2024-03-29T06:17:46;2.70;;;1.13;;
19187;SDS011;9726;52.198;8.792;2024-03-29T06:20:12;4.83;;;1.77;;
19187;SDS011;9726;52.198;8.792;2024-03-29T06:22:38;5.23;;;1.30;;
19187;SDS011;9726;52.198;8.792;2024-03-29T06:25:04;5.20;;;2.70;;
19187;SDS011;9726;52.198;8.792;2024-03-29T06:27:34;5.37;;;1.53;;
19187;SDS011;9726;52.198;8.792;2024-03-29T06:30:01;12.23;;;1.60;;
19187;SDS011;9726;52.198;8.792;2024-03-29T06:32:31;2.40;;;1.60;;
19187;SDS011;9726;52.198;8.792;2024-03-29T06:35:00;7.77;;;2.10;;
19187;SDS011;9726;52.198;8.792;2024-03-29T06:37:27;5.17;;;1.50;;
19187;SDS011;9726;52.198;8.792;2024-03-29T06:39:54;4.27;;;1.33;;
19187;SDS011;9726;52.198;8.792;2024-03-29T06:42:20;3.83;;;1.77;;
19187;SDS011;9726;52.198;8.792;2024-03-29T06:44:46;13.03;;;1.87;;
19187;SDS011;9726;52.198;8.792;2024-03-29T06:47:12;3.73;;;2.23;;
19187;SDS011;9726;52.198;8.792;2024-03-29T06:49:38;6.97;;;1.77;;
19187;SDS011;9726;52.198;8.792;2024-03-29T06:52:08;10.87;;;2.40;;
19187;SDS011;9726;52.198;8.792;2024-03-29T06:54:34;9.47;;;2.53;;
19187;SDS011;9726;52.198;8.792;2024-03-29T06:57:00;7.70;;;2.30;;
19187;SDS011;9726;52.198;8.792;2024-03-29T06:59:26;7.70;;;1.70;;
19187;SDS011;9726;52.198;8.792;2024-03-29T07:01:53;2.23;;;1.37;;
19187;SDS011;9726;52.198;8.792;2024-03-29T07:04:20;12.80;;;2.50;;
19187;SDS011;9726;52.198;8.792;2024-03-29T07:06:51;6.43;;;2.20;;
19187;SDS011;9726;52.198;8.792;2024-03-29T07:09:18;7.97;;;2.27;;
19187;SDS011;9726;52.198;8.792;2024-03-29T07:11:45;4.73;;;2.20;;
19187;SDS011;9726;52.198;8.792;2024-03-29T07:14:13;10.90;;;3.07;;
19187;SDS011;9726;52.198;8.792;2024-03-29T07:16:43;8.57;;;2.47;;
19187;SDS011;9726;52.198;8.792;2024-03-29T07:19:10;5.63;;;1.90;;
19187;SDS011;9726;52.198;8.792;2024-03-29T07:21:38;12.53;;;2.63;;
19187;SDS011;9726;52.198;8.792;2024-03-29T07:24:05;7.38;;;2.20;;
19187;SDS011;9726;52.198;8.792;2024-03-29T07:26:32;8.53;;;2.10;;
19187;SDS011;9726;52.198;8.792;2024-03-29T07:28:58;12.37;;;3.33;;
19187;SDS011;9726;52.198;8.792;2024-03-29T07:31:24;13.83;;;4.23;;
19187;SDS011;9726;52.198;8.792;2024-03-29T07:33:50;6.73;;;2.47;;
19187;SDS011;9726;52.198;8.792;2024-03-29T07:36:17;5.17;;;1.40;;
19187;SDS011;9726;52.198;8.792;2024-03-29T07:38:43;5.43;;;2.13;;
19187;SDS011;9726;52.198;8.792;2024-03-29T07:41:09;9.98;;;2.58;;
19187;SDS011;9726;52.198;8.792;2024-03-29T07:43:39;5.90;;;1.90;;
19187;SDS011;9726;52.198;8.792;2024-03-29T07:46:06;13.30;;;1.40;;
19187;SDS011;9726;52.198;8.792;2024-03-29T07:48:34;2.53;;;1.00;;
19187;SDS011;9726;52.198;8.792;2024-03-29T07:51:01;5.80;;;1.75;;
19187;SDS011;9726;52.198;8.792;2024-03-29T07:53:28;3.17;;;1.40;;
19187;SDS011;9726;52.198;8.792;2024-03-29T07:55:54;5.93;;;1.80;;
19187;SDS011;9726;52.198;8.792;2024-03-29T07:58:20;5.37;;;1.20;;
19187;SDS011;9726;52.198;8.792;2024-03-29T08:00:47;4.33;;;1.33;;
19187;SDS011;9726;52.198;8.792;2024-03-29T08:03:13;4.57;;;1.40;;
19187;SDS011;9726;52.198;8.792;2024-03-29T08:05:39;2.93;;;1.00;;
19187;SDS011;9726;52.198;8.792;2024-03-29T08:08:06;8.00;;;1.13;;
19187;SDS011;9726;52.198;8.792;2024-03-29T08:10:32;4.67;;;1.00;;
19187;SDS011;9726;52.198;8.792;2024-03-29T08:12:58;3.00;;;1.23;;
19187;SDS011;9726;52.198;8.792;2024-03-29T08:15:26;3.10;;;1.20;;
19187;SDS011;9726;52.198;8.792;2024-03-29T08:17:53;4.43;;;1.60;;
19187;SDS011;9726;52.198;8.792;2024-03-29T08:20:19;6.97;;;1.30;;
19187;SDS011;9726;52.198;8.792;2024-03-29T08:22:45;4.07;;;1.10;;
19187;SDS011;9726;52.198;8.792;2024-03-29T08:25:11;5.43;;;1.20;;
19187;SDS011;9726;52.198;8.792;2024-03-29T08:27:37;5.53;;;1.80;;
19187;SDS011;9726;52.198;8.792;2024-03-29T08:30:04;3.17;;;1.33;;
19187;SDS011;9726;52.198;8.792;2024-03-29T08:32:31;2.47;;;1.40;;
19187;SDS011;9726;52.198;8.792;2024-03-29T08:34:58;1.63;;;0.93;;
19187;SDS011;9726;52.198;8.792;2024-03-29T08:37:24;4.53;;;1.35;;
19187;SDS011;9726;52.198;8.792;2024-03-29T08:39:50;3.57;;;1.40;;
19187;SDS011;9726;52.198;8.792;2024-03-29T08:42:16;2.83;;;1.30;;
19187;SDS011;9726;52.198;8.792;2024-03-29T08:44:43;6.83;;;1.10;;
19187;SDS011;9726;52.198;8.792;2024-03-29T08:47:09;3.20;;;1.50;;
19187;SDS011;9726;52.198;8.792;2024-03-29T08:49:36;7.13;;;1.60;;
19187;SDS011;9726;52.198;8.792;2024-03-29T08:52:03;4.40;;;1.27;;
19187;SDS011;9726;52.198;8.792;2024-03-29T08:54:31;3.30;;;1.30;;
19187;SDS011;9726;52.198;8.792;2024-03-29T08:56:57;2.83;;;1.13;;
19187;SDS011;9726;52.198;8.792;2024-03-29T08:59:25;2.73;;;1.17;;
19187;SDS011;9726;52.198;8.792;2024-03-29T09:02:04;6.97;;;1.20;;
19187;SDS011;9726;52.198;8.792;2024-03-29T09:04:40;7.77;;;0.87;;
19187;SDS011;9726;52.198;8.792;2024-03-29T09:07:06;3.70;;;1.30;;
19187;SDS011;9726;52.198;8.792;2024-03-29T09:09:32;2.33;;;1.27;;
19187;SDS011;9726;52.198;8.792;2024-03-29T09:11:59;5.80;;;1.20;;
19187;SDS011;9726;52.198;8.792;2024-03-29T09:14:26;6.07;;;0.90;;
19187;SDS011;9726;52.198;8.792;2024-03-29T09:16:52;6.43;;;1.10;;
19187;SDS011;9726;52.198;8.792;2024-03-29T09:19:18;2.40;;;1.33;;
19187;SDS011;9726;52.198;8.792;2024-03-29T09:21:45;3.47;;;1.20;;
19187;SDS011;9726;52.198;8.792;2024-03-29T09:24:11;2.23;;;0.90;;
19187;SDS011;9726;52.198;8.792;2024-03-29T09:26:38;1.40;;;0.90;;
19187;SDS011;9726;52.198;8.792;2024-03-29T09:29:05;3.47;;;1.07;;
19187;SDS011;9726;52.198;8.792;2024-03-29T09:31:32;1.47;;;1.03;;
19187;SDS011;9726;52.198;8.792;2024-03-29T09:33:58;5.03;;;1.47;;
19187;SDS011;9726;52.198;8.792;2024-03-29T09:36:24;1.00;;;0.67;;
19187;SDS011;9726;52.198;8.792;2024-03-29T09:38:50;6.63;;;1.33;;
19187;SDS011;9726;52.198;8.792;2024-03-29T09:41:20;2.83;;;1.00;;
19187;SDS011;9726;52.198;8.792;2024-03-29T09:43:47;1.80;;;0.80;;
19187;SDS011;9726;52.198;8.792;2024-03-29T09:46:14;1.50;;;0.87;;
19187;SDS011;9726;52.198;8.792;2024-03-29T09:48:41;3.50;;;1.10;;
19187;SDS011;9726;52.198;8.792;2024-03-29T09:51:13;2.73;;;0.90;;
19187;SDS011;9726;52.198;8.792;2024-03-29T09:53:43;7.73;;;1.60;;
19187;SDS011;9726;52.198;8.792;2024-03-29T09:56:11;3.13;;;0.93;;
19187;SDS011;9726;52.198;8.792;2024-03-29T09:58:37;3.63;;;1.00;;
19187;SDS011;9726;52.198;8.792;2024-03-29T10:01:05;5.80;;;0.83;;
19187;SDS011;9726;52.198;8.792;2024-03-29T10:03:38;2.00;;;1.27;;
19187;SDS011;9726;52.198;8.792;2024-03-29T10:06:06;3.63;;;1.13;;
19187;SDS011;9726;52.198;8.792;2024-03-29T10:08:36;2.80;;;1.00;;
19187;SDS011;9726;52.198;8.792;2024-03-29T10:11:02;2.00;;;0.97;;
19187;SDS011;9726;52.198;8.792;2024-03-29T10:13:29;3.07;;;1.40;;
19187;SDS011;9726;52.198;8.792;2024-03-29T10:15:55;1.63;;;1.33;;
19187;SDS011;9726;52.198;8.792;2024-03-29T10:18:22;8.13;;;1.20;;
19187;SDS011;9726;52.198;8.792;2024-03-29T10:20:59;2.90;;;0.90;;
19187;SDS011;9726;52.198;8.792;2024-03-29T10:23:31;3.40;;;1.00;;
19187;SDS011;9726;52.198;8.792;2024-03-29T10:25:58;3.27;;;1.10;;
19187;SDS011;9726;52.198;8.792;2024-03-29T10:28:27;1.47;;;0.80;;
19187;SDS011;9726;52.198;8.792;2024-03-29T10:30:58;6.03;;;1.47;;
19187;SDS011;9726;52.198;8.792;2024-03-29T10:33:28;2.47;;;0.90;;
19187;SDS011;9726;52.198;8.792;2024-03-29T10:36:01;2.17;;;1.10;;
19187;SDS011;9726;52.198;8.792;2024-03-29T10:38:33;3.30;;;1.20;;
19187;SDS011;9726;52.198;8.792;2024-03-29T10:40:59;2.70;;;1.00;;
19187;SDS011;9726;52.198;8.792;2024-03-29T10:43:29;1.73;;;1.00;;
19187;SDS011;9726;52.198;8.792;2024-03-29T10:45:55;1.47;;;0.90;;
19187;SDS011;9726;52.198;8.792;2024-03-29T10:48:25;1.70;;;1.07;;
19187;SDS011;9726;52.198;8.792;2024-03-29T10:50:53;1.10;;;0.97;;
19187;SDS011;9726;52.198;8.792;2024-03-29T10:53:22;2.20;;;0.80;;
19187;SDS011;9726;52.198;8.792;2024-03-29T10:55:50;2.37;;;0.90;;
19187;SDS011;9726;52.198;8.792;2024-03-29T10:58:25;1.87;;;0.80;;
19187;SDS011;9726;52.198;8.792;2024-03-29T11:00:56;2.33;;;0.90;;
19187;SDS011;9726;52.198;8.792;2024-03-29T11:03:35;3.93;;;1.00;;
19187;SDS011;9726;52.198;8.792;2024-03-29T11:06:06;1.93;;;1.60;;
19187;SDS011;9726;52.198;8.792;2024-03-29T11:08:33;1.70;;;0.77;;
19187;SDS011;9726;52.198;8.792;2024-03-29T11:11:08;1.37;;;0.80;;
19187;SDS011;9726;52.198;8.792;2024-03-29T11:13:40;0.97;;;0.70;;
19187;SDS011;9726;52.198;8.792;2024-03-29T11:16:14;2.97;;;0.97;;
19187;SDS011;9726;52.198;8.792;2024-03-29T11:18:46;2.37;;;1.00;;
19187;SDS011;9726;52.198;8.792;2024-03-29T11:21:14;2.57;;;1.10;;
19187;SDS011;9726;52.198;8.792;2024-03-29T11:23:50;1.27;;;0.67;;
19187;SDS011;9726;52.198;8.792;2024-03-29T11:26:18;0.90;;;0.67;;
19187;SDS011;9726;52.198;8.792;2024-03-29T11:28:49;0.80;;;0.80;;
19187;SDS011;9726;52.198;8.792;2024-03-29T11:31:16;3.80;;;1.00;;
19187;SDS011;9726;52.198;8.792;2024-03-29T11:36:15;3.93;;;0.80;;
19187;SDS011;9726;52.198;8.792;2024-03-29T11:38:48;2.60;;;1.07;;
19187;SDS011;9726;52.198;8.792;2024-03-29T11:41:19;2.93;;;1.70;;
19187;SDS011;9726;52.198;8.792;2024-03-29T11:43:57;1.63;;;0.93;;
19187;SDS011;9726;52.198;8.792;2024-03-29T11:46:25;3.47;;;0.80;;
19187;SDS011;9726;52.198;8.792;2024-03-29T11:48:52;2.50;;;0.70;;
19187;SDS011;9726;52.198;8.792;2024-03-29T11:51:19;3.47;;;0.73;;
19187;SDS011;9726;52.198;8.792;2024-03-29T11:53:48;2.53;;;1.00;;
19187;SDS011;9726;52.198;8.792;2024-03-29T11:56:18;1.43;;;0.90;;
19187;SDS011;9726;52.198;8.792;2024-03-29T11:58:45;3.20;;;0.80;;
19187;SDS011;9726;52.198;8.792;2024-03-29T12:01:14;2.00;;;0.70;;
19187;SDS011;9726;52.198;8.792;2024-03-29T12:03:41;3.70;;;0.90;;
19187;SDS011;9726;52.198;8.792;2024-03-29T12:06:08;1.93;;;0.70;;
19187;SDS011;9726;52.198;8.792;2024-03-29T12:08:38;1.90;;;1.00;;
19187;SDS011;9726;52.198;8.792;2024-03-29T12:11:07;2.30;;;0.80;;
19187;SDS011;9726;52.198;8.792;2024-03-29T12:13:33;1.70;;;1.00;;
19187;SDS011;9726;52.198;8.792;2024-03-29T12:16:00;3.67;;;0.63;;
19187;SDS011;9726;52.198;8.792;2024-03-29T12:18:27;3.90;;;0.73;;
19187;SDS011;9726;52.198;8.792;2024-03-29T12:21:00;1.93;;;0.80;;
19187;SDS011;9726;52.198;8.792;2024-03-29T12:23:27;1.23;;;0.77;;
19187;SDS011;9726;52.198;8.792;2024-03-29T12:25:54;4.07;;;0.90;;
19187;SDS011;9726;52.198;8.792;2024-03-29T12:28:23;1.90;;;0.80;;
19187;SDS011;9726;52.198;8.792;2024-03-29T12:30:50;1.60;;;0.73;;
19187;SDS011;9726;52.198;8.792;2024-03-29T12:33:17;2.17;;;0.73;;
19187;SDS011;9726;52.198;8.792;2024-03-29T12:35:50;0.60;;;0.60;;
19187;SDS011;9726;52.198;8.792;2024-03-29T12:38:19;3.63;;;0.80;;
19187;SDS011;9726;52.198;8.792;2024-03-29T12:40:47;0.60;;;0.60;;
19187;SDS011;9726;52.198;8.792;2024-03-29T12:43:15;2.73;;;0.90;;
19187;SDS011;9726;52.198;8.792;2024-03-29T12:45:48;1.23;;;0.70;;
19187;SDS011;9726;52.198;8.792;2024-03-29T12:48:21;1.97;;;0.90;;
19187;SDS011;9726;52.198;8.792;2024-03-29T12:50:51;0.73;;;0.60;;
19187;SDS011;9726;52.198;8.792;2024-03-29T12:53:19;1.73;;;0.80;;
19187;SDS011;9726;52.198;8.792;2024-03-29T12:55:46;0.70;;;0.47;;
19187;SDS011;9726;52.198;8.792;2024-03-29T12:58:16;1.17;;;0.67;;
19187;SDS011;9726;52.198;8.792;2024-03-29T13:00:50;0.50;;;0.50;;
19187;SDS011;9726;52.198;8.792;2024-03-29T13:03:18;3.37;;;0.83;;
19187;SDS011;9726;52.198;8.792;2024-03-29T13:05:44;1.23;;;0.60;;
19187;SDS011;9726;52.198;8.792;2024-03-29T13:08:11;2.33;;;1.00;;
19187;SDS011;9726;52.198;8.792;2024-03-29T13:10:41;1.63;;;0.80;;
19187;SDS011;9726;52.198;8.792;2024-03-29T13:13:08;0.50;;;0.50;;
19187;SDS011;9726;52.198;8.792;2024-03-29T13:15:35;1.47;;;0.77;;
19187;SDS011;9726;52.198;8.792;2024-03-29T13:18:03;3.37;;;1.50;;
19187;SDS011;9726;52.198;8.792;2024-03-29T13:20:30;1.27;;;0.70;;
19187;SDS011;9726;52.198;8.792;2024-03-29T13:22:58;4.73;;;1.30;;
19187;SDS011;9726;52.198;8.792;2024-03-29T13:25:24;1.37;;;1.03;;
19187;SDS011;9726;52.198;8.792;2024-03-29T13:27:52;1.90;;;0.80;;
19187;SDS011;9726;52.198;8.792;2024-03-29T13:30:24;1.70;;;0.83;;
19187;SDS011;9726;52.198;8.792;2024-03-29T13:32:51;0.73;;;0.67;;
19187;SDS011;9726;52.198;8.792;2024-03-29T13:35:18;0.87;;;0.67;;
19187;SDS011;9726;52.198;8.792;2024-03-29T13:37:48;1.60;;;0.70;;
19187;SDS011;9726;52.198;8.792;2024-03-29T13:40:17;3.67;;;0.87;;
19187;SDS011;9726;52.198;8.792;2024-03-29T13:42:44;4.00;;;0.87;;
19187;SDS011;9726;52.198;8.792;2024-03-29T13:45:11;1.17;;;0.80;;
19187;SDS011;9726;52.198;8.792;2024-03-29T13:47:37;1.20;;;0.80;;
19187;SDS011;9726;52.198;8.792;2024-03-29T13:50:07;0.60;;;0.60;;
19187;SDS011;9726;52.198;8.792;2024-03-29T13:52:35;4.67;;;0.80;;
19187;SDS011;9726;52.198;8.792;2024-03-29T13:55:02;1.37;;;0.87;;
19187;SDS011;9726;52.198;8.792;2024-03-29T13:57:29;1.67;;;0.60;;
19187;SDS011;9726;52.198;8.792;2024-03-29T13:59:56;2.83;;;0.70;;
19187;SDS011;9726;52.198;8.792;2024-03-29T14:02:25;2.70;;;0.80;;
19187;SDS011;9726;52.198;8.792;2024-03-29T14:04:53;1.07;;;0.80;;
19187;SDS011;9726;52.198;8.792;2024-03-29T14:07:20;1.57;;;0.77;;
19187;SDS011;9726;52.198;8.792;2024-03-29T14:09:46;1.37;;;0.63;;
19187;SDS011;9726;52.198;8.792;2024-03-29T14:12:13;1.53;;;0.80;;
19187;SDS011;9726;52.198;8.792;2024-03-29T14:14:40;1.90;;;1.33;;
19187;SDS011;9726;52.198;8.792;2024-03-29T14:17:07;3.23;;;1.03;;
19187;SDS011;9726;52.198;8.792;2024-03-29T14:19:36;1.83;;;0.70;;
19187;SDS011;9726;52.198;8.792;2024-03-29T14:22:05;2.43;;;1.03;;
19187;SDS011;9726;52.198;8.792;2024-03-29T14:24:32;2.97;;;0.80;;
19187;SDS011;9726;52.198;8.792;2024-03-29T14:27:04;1.77;;;0.93;;
19187;SDS011;9726;52.198;8.792;2024-03-29T14:29:31;2.90;;;0.93;;
19187;SDS011;9726;52.198;8.792;2024-03-29T14:31:58;2.07;;;0.93;;
19187;SDS011;9726;52.198;8.792;2024-03-29T14:34:24;0.90;;;0.70;;
19187;SDS011;9726;52.198;8.792;2024-03-29T14:36:51;3.17;;;1.03;;
19187;SDS011;9726;52.198;8.792;2024-03-29T14:39:18;2.53;;;1.17;;
19187;SDS011;9726;52.198;8.792;2024-03-29T14:41:47;2.10;;;0.73;;
19187;SDS011;9726;52.198;8.792;2024-03-29T14:44:15;1.57;;;0.80;;
19187;SDS011;9726;52.198;8.792;2024-03-29T14:46:43;1.30;;;0.97;;
19187;SDS011;9726;52.198;8.792;2024-03-29T14:49:10;2.33;;;0.90;;
19187;SDS011;9726;52.198;8.792;2024-03-29T14:51:42;1.83;;;1.07;;
19187;SDS011;9726;52.198;8.792;2024-03-29T14:54:10;3.87;;;1.30;;
19187;SDS011;9726;52.198;8.792;2024-03-29T14:56:36;2.97;;;0.80;;
19187;SDS011;9726;52.198;8.792;2024-03-29T14:59:03;2.07;;;0.70;;
19187;SDS011;9726;52.198;8.792;2024-03-29T15:01:37;4.70;;;0.90;;
19187;SDS011;9726;52.198;8.792;2024-03-29T15:04:03;7.87;;;0.80;;
19187;SDS011;9726;52.198;8.792;2024-03-29T15:06:30;1.60;;;0.70;;